createdAt,value
2023-01-13T00:01:13.923Z,98094.69
2023-01-13T00:04:20.619Z,98094.22
2023-01-13T00:07:26.487Z,98084.94
2023-01-13T00:10:36.258Z,98082.88
2023-01-13T00:13:42.137Z,98081.72
2023-01-13T00:16:49.114Z,98084.97
2023-01-13T00:19:55.223Z,98074.19
2023-01-13T00:23:02.227Z,98077.63
2023-01-13T00:26:14.926Z,98069.56
2023-01-13T00:29:21.642Z,98072.03
2023-01-13T00:32:27.549Z,98068.91
2023-01-13T00:35:34.147Z,98083.47
2023-01-13T00:38:43.259Z,98074.66
2023-01-13T00:42:04.964Z,98074.13
2023-01-13T00:45:11.667Z,98082.13
2023-01-13T00:48:18.295Z,98081.03
2023-01-13T00:51:25.331Z,98078.69
2023-01-13T00:54:31.837Z,98075.75
2023-01-13T00:57:40.637Z,98077.16
2023-01-13T01:00:47.260Z,98077.91
2023-01-13T01:03:55.687Z,98067.19
2023-01-13T01:07:02.316Z,98060.50
2023-01-13T01:10:09.639Z,98054.81
2023-01-13T01:13:18.871Z,98068.25
2023-01-13T01:16:28.606Z,98063.91
2023-01-13T01:19:37.552Z,98068.00
2023-01-13T01:22:43.349Z,98058.56
2023-01-13T01:25:49.986Z,98047.50
2023-01-13T01:28:59.609Z,98038.81
2023-01-13T01:32:06.266Z,98032.94
2023-01-13T01:35:12.804Z,98032.41
2023-01-13T01:38:21.458Z,98028.00
2023-01-13T01:41:31.843Z,98020.00
2023-01-13T01:44:59.855Z,98021.31
2023-01-13T01:48:10.245Z,98016.59
2023-01-13T01:51:17.720Z,98009.59
2023-01-13T01:54:31.689Z,98012.81
2023-01-13T01:57:49.142Z,98005.47
2023-01-13T02:00:57.814Z,97994.84
2023-01-13T02:04:15.735Z,98001.00
2023-01-13T02:07:26.461Z,98001.84
2023-01-13T02:10:35.603Z,97997.44
2023-01-13T02:13:41.690Z,97999.44
2023-01-13T02:17:14.040Z,98000.59
2023-01-13T02:20:56.870Z,97996.69
2023-01-13T02:25:01.704Z,97990.59
2023-01-13T02:29:10.079Z,97980.97
2023-01-13T02:32:30.808Z,97967.69
2023-01-13T02:35:51.099Z,97974.22
2023-01-13T02:39:10.777Z,97974.44
2023-01-13T02:42:42.629Z,97976.19
2023-01-13T02:46:00.580Z,97970.00
2023-01-13T02:49:30.620Z,97970.94
2023-01-13T02:52:43.939Z,97966.06
2023-01-13T02:55:56.796Z,97971.75
2023-01-13T02:59:07.450Z,97974.84
2023-01-13T03:02:22.993Z,97980.59
2023-01-13T03:05:37.509Z,97973.72
2023-01-13T03:08:57.390Z,97973.03
2023-01-13T03:12:19.068Z,97966.03
2023-01-13T03:15:40.866Z,97967.16
2023-01-13T03:19:10.253Z,97960.59
2023-01-13T03:22:32.761Z,97968.13
2023-01-13T03:25:48.885Z,97959.81
2023-01-13T03:29:08.176Z,97962.13
2023-01-13T03:32:26.017Z,97965.72
2023-01-13T03:35:41.121Z,97960.19
2023-01-13T03:38:59.461Z,97953.16
2023-01-13T03:42:15.978Z,97958.22
2023-01-13T03:45:21.851Z,97962.94
2023-01-13T03:48:34.363Z,97957.88
2023-01-13T03:51:50.742Z,97961.16
2023-01-13T03:55:10.740Z,97963.31
2023-01-13T03:58:26.364Z,97959.22
2023-01-13T04:01:45.425Z,97960.09
2023-01-13T04:04:59.636Z,97958.59
2023-01-13T04:08:21.094Z,97965.47
2023-01-13T04:11:41.873Z,97963.22
2023-01-13T04:14:49.725Z,97957.97
2023-01-13T04:17:56.378Z,97958.00
2023-01-13T04:21:05.094Z,97949.16
2023-01-13T04:24:12.557Z,97952.13
2023-01-13T04:27:21.833Z,97946.69
2023-01-13T04:30:27.640Z,97956.03
2023-01-13T04:33:34.166Z,97959.63
2023-01-13T04:36:40.286Z,97955.38
2023-01-13T04:39:46.899Z,97954.06
2023-01-13T04:42:58.515Z,97941.16
2023-01-13T04:46:05.166Z,97941.16
2023-01-13T04:49:10.918Z,97950.31
2023-01-13T04:52:17.599Z,97946.88
2023-01-13T04:55:26.068Z,97943.41
2023-01-13T04:58:35.388Z,97945.53
2023-01-13T05:01:42.387Z,97954.22
2023-01-13T05:04:49.735Z,97955.53
2023-01-13T05:07:55.759Z,97955.84
2023-01-13T05:11:23.687Z,97956.34
2023-01-13T05:14:44.401Z,97962.56
2023-01-13T05:17:52.648Z,97955.84
2023-01-13T05:20:58.427Z,97954.22
2023-01-13T05:24:17.534Z,97960.75
2023-01-13T05:27:23.323Z,97958.31
2023-01-13T05:30:42.478Z,97952.41
2023-01-13T05:33:48.601Z,97961.72
2023-01-13T05:36:55.240Z,97954.22
2023-01-13T05:40:28.188Z,97953.06
2023-01-13T05:43:35.146Z,97951.25
2023-01-13T05:46:44.383Z,97955.03
2023-01-13T05:49:51.074Z,97954.00
2023-01-13T05:52:56.910Z,97954.84
2023-01-13T05:56:06.602Z,97952.72
2023-01-13T05:59:12.398Z,97951.41
2023-01-13T06:02:21.633Z,97956.69
2023-01-13T06:05:28.185Z,97952.25
2023-01-13T06:08:39.528Z,97955.84
2023-01-13T06:11:46.581Z,97953.56
2023-01-13T06:14:53.456Z,97958.44
2023-01-13T06:18:04.630Z,97958.44
2023-01-13T06:21:11.348Z,97956.19
2023-01-13T06:24:17.282Z,97958.31
2023-01-13T06:27:25.969Z,97954.88
2023-01-13T06:30:38.733Z,97958.00
2023-01-13T06:33:58.538Z,97958.66
2023-01-13T06:37:07.609Z,97959.31
2023-01-13T06:40:17.767Z,97956.69
2023-01-13T06:43:21.271Z,97954.22
2023-01-13T06:46:29.192Z,97963.06
2023-01-13T06:49:37.711Z,97965.19
2023-01-13T06:52:44.265Z,97959.97
2023-01-13T06:55:50.170Z,97958.00
2023-01-13T06:58:56.819Z,97962.22
2023-01-13T07:02:02.906Z,97963.16
2023-01-13T07:05:12.764Z,97951.22
2023-01-13T07:08:18.590Z,97959.41
2023-01-13T07:11:25.270Z,97948.09
2023-01-13T07:14:43.443Z,97956.28
2023-01-13T07:17:50.464Z,97951.84
2023-01-13T07:21:04.607Z,97961.16
2023-01-13T07:24:14.785Z,97967.41
2023-01-13T07:27:23.502Z,97961.69
2023-01-13T07:30:30.420Z,97959.56
2023-01-13T07:33:36.324Z,97955.63
2023-01-13T07:36:45.526Z,97955.94
2023-01-13T07:39:51.394Z,97946.28
2023-01-13T07:43:10.925Z,97957.88
2023-01-13T07:46:17.043Z,97958.09
2023-01-13T07:49:23.682Z,97957.25
2023-01-13T07:52:33.161Z,97942.41
2023-01-13T07:55:45.830Z,97942.75
2023-01-13T07:58:53.441Z,97949.78
2023-01-13T08:02:00.209Z,97942.31
2023-01-13T08:05:06.443Z,97949.66
2023-01-13T08:08:15.868Z,97955.84
2023-01-13T08:11:23.551Z,97954.38
2023-01-13T08:14:30.419Z,97960.59
2023-01-13T08:17:36.299Z,97951.47
2023-01-13T08:20:43.309Z,97958.31
2023-01-13T08:23:51.602Z,97961.59
2023-01-13T08:26:58.243Z,97965.34
2023-01-13T08:30:04.164Z,97964.38
2023-01-13T08:33:13.756Z,97965.03
2023-01-13T08:36:19.578Z,97959.63
2023-01-13T08:39:29.641Z,97971.72
2023-01-13T08:42:35.827Z,97974.66
2023-01-13T08:45:42.796Z,97979.22
2023-01-13T08:48:48.726Z,97982.69
2023-01-13T08:51:56.640Z,97971.38
2023-01-13T08:55:04.964Z,97978.56
2023-01-13T08:58:15.769Z,97975.31
2023-01-13T09:01:26.385Z,97982.34
2023-01-13T09:04:34.634Z,97972.53
2023-01-13T09:07:42.142Z,97976.28
2023-01-13T09:10:51.470Z,97973.34
2023-01-13T09:13:54.688Z,97981.03
2023-01-13T09:17:02.096Z,97981.00
2023-01-13T09:20:09.469Z,97969.56
2023-01-13T09:23:16.188Z,97976.06
2023-01-13T09:26:25.230Z,97975.09
2023-01-13T09:29:32.157Z,97973.16
2023-01-13T09:32:38.413Z,97967.94
2023-01-13T09:35:42.450Z,97959.59
2023-01-13T09:38:48.350Z,97967.59
2023-01-13T09:42:18.019Z,97959.44
2023-01-13T09:45:32.055Z,97959.44
2023-01-13T09:48:52.325Z,97951.59
2023-01-13T09:52:10.870Z,97942.88
2023-01-13T09:55:22.946Z,97944.19
2023-01-13T09:58:31.586Z,97945.16
2023-01-13T10:01:54.767Z,97934.00
2023-01-13T10:05:17.269Z,97927.53
2023-01-13T10:08:31.025Z,97929.88
2023-01-13T10:11:58.792Z,97929.00
2023-01-13T10:15:21.106Z,97922.03
2023-01-13T10:18:45.999Z,97892.16
2023-01-13T10:22:25.096Z,97918.94
2023-01-13T10:25:55.540Z,97922.94
2023-01-13T10:29:02.438Z,97906.91
2023-01-13T10:32:11.203Z,97909.53
2023-01-13T10:35:17.988Z,97906.03
2023-01-13T10:38:28.371Z,97907.47
2023-01-13T10:41:36.400Z,97910.47
2023-01-13T10:44:53.517Z,97897.28
2023-01-13T10:48:17.654Z,97900.69
2023-01-13T10:51:28.652Z,97889.75
2023-01-13T10:54:54.599Z,97889.28
2023-01-13T10:58:00.894Z,97889.03
2023-01-13T11:01:10.036Z,97889.66
2023-01-13T11:04:34.638Z,97879.69
2023-01-13T11:07:50.534Z,97877.06
2023-01-13T11:11:04.191Z,97885.59
2023-01-13T11:14:37.376Z,97860.69
2023-01-13T11:18:06.818Z,97840.13
2023-01-13T11:21:41.230Z,97877.78
2023-01-13T11:25:02.648Z,97885.16
2023-01-13T11:28:38.744Z,97884.34
2023-01-13T11:32:14.756Z,97876.00
2023-01-13T11:35:30.627Z,97866.22
2023-01-13T11:39:01.011Z,97841.47
2023-01-13T11:42:30.020Z,97848.28
2023-01-13T11:45:49.207Z,97855.41
2023-01-13T11:49:09.319Z,97838.19
2023-01-13T11:52:54.526Z,97862.25
2023-01-13T11:56:30.077Z,97842.81
2023-01-13T12:00:30.872Z,97849.22
2023-01-13T12:03:54.304Z,97846.34
2023-01-13T12:07:24.066Z,97838.00
2023-01-13T12:10:57.485Z,97839.81
2023-01-13T12:14:30.998Z,97848.28
2023-01-13T12:18:04.905Z,97847.63
2023-01-13T12:21:32.304Z,97843.38
2023-01-13T12:24:59.229Z,97839.22
2023-01-13T12:28:16.159Z,97832.25
2023-01-13T12:31:53.158Z,97844.09
2023-01-13T12:35:36.613Z,97827.09
2023-01-13T12:39:01.162Z,97841.41
2023-01-13T12:42:34.540Z,97852.53
2023-01-13T12:45:50.712Z,97857.22
2023-01-13T12:49:23.072Z,97847.03
2023-01-13T12:52:49.871Z,97866.22
2023-01-13T12:56:18.100Z,97853.13
2023-01-13T12:59:53.099Z,97794.84
2023-01-13T13:03:37.544Z,97867.06
2023-01-13T13:07:11.388Z,97835.72
2023-01-13T13:10:35.426Z,97803.75
2023-01-13T13:13:53.156Z,97861.94
2023-01-13T13:17:50.638Z,97867.25
2023-01-13T13:21:13.421Z,97821.69
2023-01-13T13:24:33.133Z,97838.81
2023-01-13T13:28:20.936Z,97878.47
2023-01-13T13:32:36.452Z,97858.38
2023-01-13T13:36:14.313Z,97833.88
2023-01-13T13:39:44.735Z,97796.22
2023-01-13T13:43:14.291Z,97869.03
2023-01-13T13:46:50.197Z,97871.56
2023-01-13T13:50:01.380Z,97854.44
2023-01-13T13:53:12.330Z,97855.25
2023-01-13T13:56:38.790Z,97881.31
2023-01-13T14:00:01.437Z,97855.00
2023-01-13T14:03:35.012Z,97824.44
2023-01-13T14:06:53.379Z,97858.78
2023-01-13T14:10:20.004Z,97877.53
2023-01-13T14:13:34.595Z,97839.56
2023-01-13T14:16:56.410Z,97874.66
2023-01-13T14:20:09.953Z,97875.84
2023-01-13T14:23:33.955Z,97821.75
2023-01-13T14:26:46.675Z,97791.41
2023-01-13T14:30:04.620Z,97865.19
2023-01-13T14:33:26.338Z,97855.63
2023-01-13T14:36:42.321Z,97848.47
2023-01-13T14:39:51.730Z,97835.56
2023-01-13T14:43:16.276Z,97863.69
2023-01-13T14:46:41.000Z,97821.72
2023-01-13T14:50:19.170Z,97827.75
2023-01-13T14:53:44.051Z,97881.16
2023-01-13T14:57:16.288Z,97877.69
2023-01-13T15:00:31.214Z,97830.00
2023-01-13T15:03:51.382Z,97877.16
2023-01-13T15:07:06.080Z,97838.63
2023-01-13T15:10:27.049Z,97843.66
2023-01-13T15:13:52.848Z,97876.31
2023-01-13T15:17:17.201Z,97871.94
2023-01-13T15:20:37.201Z,97868.91
2023-01-13T15:23:47.951Z,97846.66
2023-01-13T15:26:57.075Z,97891.91
2023-01-13T15:30:10.235Z,97891.25
2023-01-13T15:33:22.689Z,97888.31
2023-01-13T15:36:38.516Z,97854.94
2023-01-13T15:39:47.557Z,97861.97
2023-01-13T15:43:09.427Z,97898.50
2023-01-13T15:46:41.853Z,97909.47
2023-01-13T15:49:52.591Z,97899.25
2023-01-13T15:53:10.631Z,97903.84
2023-01-13T15:56:30.247Z,97908.88
2023-01-13T15:59:47.428Z,97915.41
2023-01-13T16:03:00.344Z,97887.31
2023-01-13T16:06:33.403Z,97891.09
2023-01-13T16:09:46.430Z,97919.34
2023-01-13T16:13:02.331Z,97917.38
2023-01-13T16:16:25.563Z,97926.28
2023-01-13T16:19:35.207Z,97926.28
2023-01-13T16:22:46.303Z,97922.69
2023-01-13T16:25:56.370Z,97925.47
2023-01-13T16:29:04.925Z,97925.63
2023-01-13T16:32:12.425Z,97934.31
2023-01-13T16:35:22.010Z,97919.47
2023-01-13T16:38:29.274Z,97930.09
2023-01-13T16:41:46.020Z,97936.63
2023-01-13T16:45:02.079Z,97947.25
2023-01-13T16:48:24.008Z,97945.00
2023-01-13T16:51:32.224Z,97935.00
2023-01-13T16:54:41.323Z,97928.28
2023-01-13T16:57:52.465Z,97929.13
2023-01-13T17:01:05.523Z,97906.88
2023-01-13T17:04:27.334Z,97924.31
2023-01-13T17:07:36.805Z,97932.19
2023-01-13T17:10:52.015Z,97934.97
2023-01-13T17:14:18.231Z,97914.22
2023-01-13T17:17:36.809Z,97932.38
2023-01-13T17:20:51.959Z,97947.28
2023-01-13T17:24:06.339Z,97910.63
2023-01-13T17:27:18.841Z,97854.78
2023-01-13T17:30:35.425Z,97913.53
2023-01-13T17:33:47.470Z,97936.56
2023-01-13T17:37:01.938Z,97938.03
2023-01-13T17:40:19.499Z,97906.44
2023-01-13T17:43:32.284Z,97941.72
2023-01-13T17:46:51.825Z,97938.63
2023-01-13T17:50:07.267Z,97946.66
2023-01-13T17:53:24.654Z,97946.69
2023-01-13T17:56:38.139Z,97877.28
2023-01-13T17:59:48.424Z,97881.34
2023-01-13T18:03:03.739Z,97951.13
2023-01-13T18:06:26.073Z,97928.59
2023-01-13T18:09:38.342Z,97967.63
2023-01-13T18:12:48.156Z,97939.34
2023-01-13T18:16:02.657Z,97972.53
2023-01-13T18:19:26.265Z,97976.31
2023-01-13T18:22:53.309Z,97968.97
2023-01-13T18:26:12.175Z,97984.63
2023-01-13T18:29:18.610Z,97989.22
2023-01-13T18:32:32.929Z,97993.78
2023-01-13T18:35:44.045Z,97986.09
2023-01-13T18:38:53.361Z,98001.47
2023-01-13T18:42:11.475Z,98008.84
2023-01-13T18:45:18.300Z,98024.53
2023-01-13T18:48:23.986Z,98027.81
2023-01-13T18:51:33.314Z,98028.09
2023-01-13T18:54:39.498Z,98033.53
2023-01-13T18:57:46.209Z,98026.66
2023-01-13T19:00:53.395Z,98026.34
2023-01-13T19:04:02.664Z,98033.03
2023-01-13T19:07:12.725Z,98040.53
2023-01-13T19:10:20.930Z,98047.25
2023-01-13T19:13:26.746Z,98045.59
2023-01-13T19:16:34.970Z,98061.44
2023-01-13T19:19:45.405Z,98063.75
2023-01-13T19:22:55.470Z,98064.22
2023-01-13T19:26:04.389Z,98055.53
2023-01-13T19:29:13.848Z,98060.91
2023-01-13T19:32:20.999Z,98063.69
2023-01-13T19:35:28.973Z,98065.97
2023-01-13T19:38:40.767Z,98073.66
2023-01-13T19:41:59.780Z,98082.28
2023-01-13T19:45:18.090Z,98090.25
2023-01-13T19:48:24.817Z,98101.31
2023-01-13T19:51:30.846Z,98101.00
2023-01-13T19:54:40.284Z,98099.56
2023-01-13T19:57:46.237Z,98092.53
2023-01-13T20:00:54.362Z,98105.78
2023-01-13T20:04:03.387Z,98109.19
2023-01-13T20:07:11.382Z,98097.59
2023-01-13T20:10:26.175Z,98100.75
2023-01-13T20:13:36.061Z,98093.25
2023-01-13T20:16:41.935Z,98102.09
2023-01-13T20:19:48.913Z,98101.22
2023-01-13T20:22:55.066Z,98110.38
2023-01-13T20:26:06.838Z,98100.69
2023-01-13T20:29:13.837Z,98114.91
2023-01-13T20:32:20.715Z,98119.09
2023-01-13T20:35:29.829Z,98115.00
2023-01-13T20:38:39.917Z,98121.19
2023-01-13T20:42:01.825Z,98127.03
2023-01-13T20:45:12.741Z,98129.69
2023-01-13T20:48:18.731Z,98129.88
2023-01-13T20:51:26.417Z,98132.31
2023-01-13T20:54:32.362Z,98139.59
2023-01-13T20:57:48.599Z,98138.25
2023-01-13T21:00:54.643Z,98142.69
2023-01-13T21:04:03.006Z,98134.19
2023-01-13T21:07:11.916Z,98145.00
2023-01-13T21:10:19.177Z,98152.50
2023-01-13T21:13:40.148Z,98151.19
2023-01-13T21:16:46.884Z,98153.34
2023-01-13T21:19:50.707Z,98162.38
2023-01-13T21:22:58.781Z,98163.66
2023-01-13T21:26:05.109Z,98168.75
2023-01-13T21:29:14.384Z,98170.75
2023-01-13T21:32:20.183Z,98185.13
2023-01-13T21:35:26.960Z,98179.66
2023-01-13T21:38:32.775Z,98167.25
2023-01-13T21:41:51.780Z,98174.47
2023-01-13T21:45:14.551Z,98177.19
2023-01-13T21:48:21.211Z,98184.47
2023-01-13T21:51:27.019Z,98195.28
2023-01-13T21:54:33.881Z,98195.72
2023-01-13T21:57:40.877Z,98186.75
2023-01-13T22:00:50.229Z,98190.00
2023-01-13T22:04:08.330Z,98195.59
2023-01-13T22:07:16.257Z,98201.13
2023-01-13T22:10:25.510Z,98196.50
2023-01-13T22:13:44.370Z,98183.81
2023-01-13T22:16:53.765Z,98188.81
2023-01-13T22:20:01.579Z,98200.47
2023-01-13T22:23:07.341Z,98197.47
2023-01-13T22:26:15.209Z,98199.56
2023-01-13T22:29:21.196Z,98199.22
2023-01-13T22:32:30.468Z,98195.13
2023-01-13T22:35:36.223Z,98201.38
2023-01-13T22:38:43.770Z,98199.06
2023-01-13T22:41:50.663Z,98211.38
2023-01-13T22:44:57.492Z,98218.63
2023-01-13T22:48:05.817Z,98220.41
2023-01-13T22:51:15.817Z,98216.81
2023-01-13T22:54:22.415Z,98220.78
2023-01-13T22:57:35.607Z,98225.38
2023-01-13T23:00:42.076Z,98227.84
2023-01-13T23:03:54.122Z,98223.38
2023-01-13T23:07:00.264Z,98231.69
2023-01-13T23:10:10.226Z,98209.44
2023-01-13T23:13:15.972Z,98230.75
2023-01-13T23:16:24.275Z,98225.69
2023-01-13T23:19:32.706Z,98229.94
2023-01-13T23:22:40.922Z,98238.59
2023-01-13T23:25:53.672Z,98241.53
2023-01-13T23:29:06.901Z,98248.84
2023-01-13T23:32:12.793Z,98250.03
2023-01-13T23:35:22.167Z,98251.72
2023-01-13T23:38:29.543Z,98248.75
2023-01-13T23:41:36.192Z,98260.16
2023-01-13T23:44:42.066Z,98252.66
2023-01-13T23:47:48.648Z,98261.50
2023-01-13T23:51:07.823Z,98259.28
2023-01-13T23:54:14.571Z,98261.44
2023-01-13T23:57:20.408Z,98276.28
